sensor_id;sensor_type;location;lat;lon;timestamp;temperature;humidity
1367;DHT22;16877;48.810;9.282;2022-10-16T00:01:27;24.20;63.00
1367;DHT22;16877;48.810;9.282;2022-10-16T00:03:54;24.20;62.90
1367;DHT22;16877;48.810;9.282;2022-10-16T00:06:21;24.20;63.00
1367;DHT22;16877;48.810;9.282;2022-10-16T00:08:49;24.30;63.00
1367;DHT22;16877;48.810;9.282;2022-10-16T00:11:17;24.30;63.00
1367;DHT22;16877;48.810;9.282;2022-10-16T00:13:48;24.30;62.90
1367;DHT22;16877;48.810;9.282;2022-10-16T00:16:15;24.30;62.90
1367;DHT22;16877;48.810;9.282;2022-10-16T00:18:42;24.30;62.90
1367;DHT22;16877;48.810;9.282;2022-10-16T00:21:11;24.30;62.90
1367;DHT22;16877;48.810;9.282;2022-10-16T00:23:38;24.30;62.80
1367;DHT22;16877;48.810;9.282;2022-10-16T00:26:07;24.30;62.80
1367;DHT22;16877;48.810;9.282;2022-10-16T00:28:35;24.30;62.80
1367;DHT22;16877;48.810;9.282;2022-10-16T00:31:05;24.30;62.80
1367;DHT22;16877;48.810;9.282;2022-10-16T00:33:32;24.30;62.90
1367;DHT22;16877;48.810;9.282;2022-10-16T00:35:59;24.30;62.80
1367;DHT22;16877;48.810;9.282;2022-10-16T00:38:25;24.30;62.70
1367;DHT22;16877;48.810;9.282;2022-10-16T00:40:52;24.30;62.70
1367;DHT22;16877;48.810;9.282;2022-10-16T00:43:34;24.30;62.60
1367;DHT22;16877;48.810;9.282;2022-10-16T00:46:04;24.20;62.40
1367;DHT22;16877;48.810;9.282;2022-10-16T00:48:31;24.20;62.50
1367;DHT22;16877;48.810;9.282;2022-10-16T00:50:58;24.20;62.50
1367;DHT22;16877;48.810;9.282;2022-10-16T00:53:25;24.20;62.50
1367;DHT22;16877;48.810;9.282;2022-10-16T00:55:53;24.20;62.50
1367;DHT22;16877;48.810;9.282;2022-10-16T00:58:20;24.10;62.40
1367;DHT22;16877;48.810;9.282;2022-10-16T01:00:47;24.20;62.50
1367;DHT22;16877;48.810;9.282;2022-10-16T01:03:28;24.20;62.40
1367;DHT22;16877;48.810;9.282;2022-10-16T01:09:04;24.20;62.40
1367;DHT22;16877;48.810;9.282;2022-10-16T01:11:41;24.20;62.30
1367;DHT22;16877;48.810;9.282;2022-10-16T01:14:15;24.20;62.20
1367;DHT22;16877;48.810;9.282;2022-10-16T01:16:50;24.20;62.20
1367;DHT22;16877;48.810;9.282;2022-10-16T01:19:32;24.30;62.20
1367;DHT22;16877;48.810;9.282;2022-10-16T01:22:03;24.20;62.20
1367;DHT22;16877;48.810;9.282;2022-10-16T01:24:35;24.20;62.20
1367;DHT22;16877;48.810;9.282;2022-10-16T01:27:12;24.20;62.30
1367;DHT22;16877;48.810;9.282;2022-10-16T01:29:45;24.20;62.30
1367;DHT22;16877;48.810;9.282;2022-10-16T01:32:20;24.20;62.30
1367;DHT22;16877;48.810;9.282;2022-10-16T01:34:52;24.20;62.20
1367;DHT22;16877;48.810;9.282;2022-10-16T01:37:24;24.20;62.10
1367;DHT22;16877;48.810;9.282;2022-10-16T01:39:55;24.20;62.20
1367;DHT22;16877;48.810;9.282;2022-10-16T01:42:28;24.20;62.20
1367;DHT22;16877;48.810;9.282;2022-10-16T01:44:57;24.20;62.10
1367;DHT22;16877;48.810;9.282;2022-10-16T01:47:25;24.30;62.20
1367;DHT22;16877;48.810;9.282;2022-10-16T01:49:54;24.20;62.00
1367;DHT22;16877;48.810;9.282;2022-10-16T01:52:24;24.20;62.10
1367;DHT22;16877;48.810;9.282;2022-10-16T01:54:54;24.20;62.10
1367;DHT22;16877;48.810;9.282;2022-10-16T01:57:24;24.20;62.00
1367;DHT22;16877;48.810;9.282;2022-10-16T01:59:54;24.20;62.00
1367;DHT22;16877;48.810;9.282;2022-10-16T02:02:22;24.30;62.00
1367;DHT22;16877;48.810;9.282;2022-10-16T02:04:57;24.20;61.80
1367;DHT22;16877;48.810;9.282;2022-10-16T02:07:24;24.30;61.90
1367;DHT22;16877;48.810;9.282;2022-10-16T02:09:51;24.30;61.90
1367;DHT22;16877;48.810;9.282;2022-10-16T02:12:23;24.30;61.90
1367;DHT22;16877;48.810;9.282;2022-10-16T02:14:51;24.30;61.80
1367;DHT22;16877;48.810;9.282;2022-10-16T02:17:19;24.30;61.80
1367;DHT22;16877;48.810;9.282;2022-10-16T02:19:48;24.40;62.20
1367;DHT22;16877;48.810;9.282;2022-10-16T02:22:18;24.40;62.30
1367;DHT22;16877;48.810;9.282;2022-10-16T02:24:53;24.40;62.50
1367;DHT22;16877;48.810;9.282;2022-10-16T02:27:25;24.40;62.60
1367;DHT22;16877;48.810;9.282;2022-10-16T02:29:58;24.40;62.70
1367;DHT22;16877;48.810;9.282;2022-10-16T02:32:30;24.50;62.90
1367;DHT22;16877;48.810;9.282;2022-10-16T02:34:58;24.40;63.80
1367;DHT22;16877;48.810;9.282;2022-10-16T02:37:27;24.40;63.10
1367;DHT22;16877;48.810;9.282;2022-10-16T02:39:56;24.40;63.20
1367;DHT22;16877;48.810;9.282;2022-10-16T02:42:28;24.40;63.30
1367;DHT22;16877;48.810;9.282;2022-10-16T02:44:56;24.40;63.40
1367;DHT22;16877;48.810;9.282;2022-10-16T02:47:23;24.40;63.40
1367;DHT22;16877;48.810;9.282;2022-10-16T02:49:50;24.40;63.60
1367;DHT22;16877;48.810;9.282;2022-10-16T02:52:17;24.30;63.60
1367;DHT22;16877;48.810;9.282;2022-10-16T02:54:44;24.40;63.70
1367;DHT22;16877;48.810;9.282;2022-10-16T02:57:11;24.30;63.60
1367;DHT22;16877;48.810;9.282;2022-10-16T02:59:38;24.40;64.60
1367;DHT22;16877;48.810;9.282;2022-10-16T03:02:09;24.30;63.80
1367;DHT22;16877;48.810;9.282;2022-10-16T03:04:36;24.30;64.00
1367;DHT22;16877;48.810;9.282;2022-10-16T03:07:06;24.30;64.00
1367;DHT22;16877;48.810;9.282;2022-10-16T03:09:34;24.30;64.00
1367;DHT22;16877;48.810;9.282;2022-10-16T03:12:00;24.30;64.00
1367;DHT22;16877;48.810;9.282;2022-10-16T03:14:27;24.30;64.10
1367;DHT22;16877;48.810;9.282;2022-10-16T03:16:54;24.30;64.10
1367;DHT22;16877;48.810;9.282;2022-10-16T03:19:22;24.30;64.30
1367;DHT22;16877;48.810;9.282;2022-10-16T03:21:49;24.30;64.30
1367;DHT22;16877;48.810;9.282;2022-10-16T03:24:15;24.30;64.30
1367;DHT22;16877;48.810;9.282;2022-10-16T03:26:42;24.20;64.20
1367;DHT22;16877;48.810;9.282;2022-10-16T03:29:09;24.20;64.20
1367;DHT22;16877;48.810;9.282;2022-10-16T03:31:36;24.20;64.30
1367;DHT22;16877;48.810;9.282;2022-10-16T03:34:02;24.20;64.40
1367;DHT22;16877;48.810;9.282;2022-10-16T03:36:30;24.20;64.40
1367;DHT22;16877;48.810;9.282;2022-10-16T03:38:57;24.20;64.40
1367;DHT22;16877;48.810;9.282;2022-10-16T03:41:24;24.20;64.50
1367;DHT22;16877;48.810;9.282;2022-10-16T03:43:51;24.20;64.50
1367;DHT22;16877;48.810;9.282;2022-10-16T03:46:17;24.20;64.60
1367;DHT22;16877;48.810;9.282;2022-10-16T03:48:44;24.20;64.50
1367;DHT22;16877;48.810;9.282;2022-10-16T03:51:11;24.20;64.50
1367;DHT22;16877;48.810;9.282;2022-10-16T03:53:39;24.10;64.60
1367;DHT22;16877;48.810;9.282;2022-10-16T03:56:06;24.10;64.70
1367;DHT22;16877;48.810;9.282;2022-10-16T03:58:33;24.10;64.70
1367;DHT22;16877;48.810;9.282;2022-10-16T04:00:59;24.10;64.70
1367;DHT22;16877;48.810;9.282;2022-10-16T04:03:26;24.10;64.70
1367;DHT22;16877;48.810;9.282;2022-10-16T04:05:53;24.10;64.90
1367;DHT22;16877;48.810;9.282;2022-10-16T04:08:20;24.10;64.80
1367;DHT22;16877;48.810;9.282;2022-10-16T04:10:48;24.10;65.00
1367;DHT22;16877;48.810;9.282;2022-10-16T04:13:15;24.00;64.80
1367;DHT22;16877;48.810;9.282;2022-10-16T04:15:42;24.00;64.90
1367;DHT22;16877;48.810;9.282;2022-10-16T04:18:08;24.10;65.00
1367;DHT22;16877;48.810;9.282;2022-10-16T04:20:35;24.00;64.90
1367;DHT22;16877;48.810;9.282;2022-10-16T04:23:02;24.10;65.10
1367;DHT22;16877;48.810;9.282;2022-10-16T04:25:29;24.00;65.00
1367;DHT22;16877;48.810;9.282;2022-10-16T04:27:58;24.00;65.00
1367;DHT22;16877;48.810;9.282;2022-10-16T04:30:24;24.00;65.00
1367;DHT22;16877;48.810;9.282;2022-10-16T04:32:52;24.00;65.10
1367;DHT22;16877;48.810;9.282;2022-10-16T04:35:20;24.00;65.10
1367;DHT22;16877;48.810;9.282;2022-10-16T04:37:47;24.00;65.10
1367;DHT22;16877;48.810;9.282;2022-10-16T04:40:14;24.00;65.20
1367;DHT22;16877;48.810;9.282;2022-10-16T04:42:41;24.00;65.20
1367;DHT22;16877;48.810;9.282;2022-10-16T04:45:09;23.90;65.20
1367;DHT22;16877;48.810;9.282;2022-10-16T04:47:36;23.90;65.20
1367;DHT22;16877;48.810;9.282;2022-10-16T04:50:04;23.90;65.40
1367;DHT22;16877;48.810;9.282;2022-10-16T04:52:31;23.90;65.30
1367;DHT22;16877;48.810;9.282;2022-10-16T04:54:58;23.90;65.30
1367;DHT22;16877;48.810;9.282;2022-10-16T04:57:27;23.90;65.30
1367;DHT22;16877;48.810;9.282;2022-10-16T04:59:55;23.90;65.30
1367;DHT22;16877;48.810;9.282;2022-10-16T05:02:23;23.90;65.40
1367;DHT22;16877;48.810;9.282;2022-10-16T05:04:50;23.90;65.40
1367;DHT22;16877;48.810;9.282;2022-10-16T05:07:16;23.90;65.40
1367;DHT22;16877;48.810;9.282;2022-10-16T05:09:43;23.90;65.40
1367;DHT22;16877;48.810;9.282;2022-10-16T05:12:10;23.90;65.40
1367;DHT22;16877;48.810;9.282;2022-10-16T05:14:37;23.90;65.50
1367;DHT22;16877;48.810;9.282;2022-10-16T05:17:04;23.80;65.30
1367;DHT22;16877;48.810;9.282;2022-10-16T05:19:32;23.80;65.30
1367;DHT22;16877;48.810;9.282;2022-10-16T05:21:59;23.80;65.30
1367;DHT22;16877;48.810;9.282;2022-10-16T05:24:26;23.80;65.40
1367;DHT22;16877;48.810;9.282;2022-10-16T05:26:53;23.80;65.60
1367;DHT22;16877;48.810;9.282;2022-10-16T05:29:20;23.80;65.50
1367;DHT22;16877;48.810;9.282;2022-10-16T05:31:50;23.80;65.50
1367;DHT22;16877;48.810;9.282;2022-10-16T05:34:17;23.80;65.50
1367;DHT22;16877;48.810;9.282;2022-10-16T05:36:45;23.80;65.50
1367;DHT22;16877;48.810;9.282;2022-10-16T05:39:14;23.80;65.50
1367;DHT22;16877;48.810;9.282;2022-10-16T05:41:41;23.80;65.60
1367;DHT22;16877;48.810;9.282;2022-10-16T05:44:08;23.80;65.60
1367;DHT22;16877;48.810;9.282;2022-10-16T05:46:34;23.80;65.60
1367;DHT22;16877;48.810;9.282;2022-10-16T05:49:01;23.80;65.70
1367;DHT22;16877;48.810;9.282;2022-10-16T05:51:28;23.80;65.70
1367;DHT22;16877;48.810;9.282;2022-10-16T05:53:56;23.80;65.70
1367;DHT22;16877;48.810;9.282;2022-10-16T05:56:23;23.70;65.60
1367;DHT22;16877;48.810;9.282;2022-10-16T05:58:50;23.80;65.70
1367;DHT22;16877;48.810;9.282;2022-10-16T06:01:17;23.80;65.70
1367;DHT22;16877;48.810;9.282;2022-10-16T06:03:46;23.80;65.70
1367;DHT22;16877;48.810;9.282;2022-10-16T06:06:14;23.80;65.70
1367;DHT22;16877;48.810;9.282;2022-10-16T06:08:42;23.80;65.70
1367;DHT22;16877;48.810;9.282;2022-10-16T06:11:13;23.80;65.80
1367;DHT22;16877;48.810;9.282;2022-10-16T06:13:41;23.80;65.80
1367;DHT22;16877;48.810;9.282;2022-10-16T06:16:08;23.80;65.80
1367;DHT22;16877;48.810;9.282;2022-10-16T06:18:35;23.80;65.90
1367;DHT22;16877;48.810;9.282;2022-10-16T06:21:07;23.80;65.90
1367;DHT22;16877;48.810;9.282;2022-10-16T06:23:34;23.80;65.80
1367;DHT22;16877;48.810;9.282;2022-10-16T06:26:05;23.80;65.80
1367;DHT22;16877;48.810;9.282;2022-10-16T06:28:33;23.90;66.00
1367;DHT22;16877;48.810;9.282;2022-10-16T06:31:00;23.90;66.00
1367;DHT22;16877;48.810;9.282;2022-10-16T06:33:26;23.90;66.00
1367;DHT22;16877;48.810;9.282;2022-10-16T06:35:53;23.90;65.90
1367;DHT22;16877;48.810;9.282;2022-10-16T06:38:20;23.90;66.00
1367;DHT22;16877;48.810;9.282;2022-10-16T06:40:47;23.90;65.90
1367;DHT22;16877;48.810;9.282;2022-10-16T06:43:14;23.90;65.90
1367;DHT22;16877;48.810;9.282;2022-10-16T06:45:42;23.90;66.00
1367;DHT22;16877;48.810;9.282;2022-10-16T06:48:08;23.90;65.90
1367;DHT22;16877;48.810;9.282;2022-10-16T06:50:35;24.00;66.00
1367;DHT22;16877;48.810;9.282;2022-10-16T06:53:02;24.10;66.10
1367;DHT22;16877;48.810;9.282;2022-10-16T06:55:28;24.00;66.00
1367;DHT22;16877;48.810;9.282;2022-10-16T06:57:55;24.10;66.10
1367;DHT22;16877;48.810;9.282;2022-10-16T07:00:22;24.10;66.10
1367;DHT22;16877;48.810;9.282;2022-10-16T07:02:50;24.20;66.10
1367;DHT22;16877;48.810;9.282;2022-10-16T07:05:16;24.10;66.00
1367;DHT22;16877;48.810;9.282;2022-10-16T07:07:43;24.10;66.00
1367;DHT22;16877;48.810;9.282;2022-10-16T07:10:10;24.20;66.30
1367;DHT22;16877;48.810;9.282;2022-10-16T07:12:37;24.20;66.10
1367;DHT22;16877;48.810;9.282;2022-10-16T07:15:04;24.20;67.00
1367;DHT22;16877;48.810;9.282;2022-10-16T07:17:31;24.20;66.10
1367;DHT22;16877;48.810;9.282;2022-10-16T07:20:00;24.30;66.20
1367;DHT22;16877;48.810;9.282;2022-10-16T07:22:28;24.30;66.10
1367;DHT22;16877;48.810;9.282;2022-10-16T07:24:55;24.30;66.10
1367;DHT22;16877;48.810;9.282;2022-10-16T07:27:21;24.30;66.20
1367;DHT22;16877;48.810;9.282;2022-10-16T07:29:49;24.30;66.20
1367;DHT22;16877;48.810;9.282;2022-10-16T07:32:16;24.30;66.20
1367;DHT22;16877;48.810;9.282;2022-10-16T07:34:42;24.30;66.30
1367;DHT22;16877;48.810;9.282;2022-10-16T07:37:11;24.30;66.20
1367;DHT22;16877;48.810;9.282;2022-10-16T07:39:37;24.30;66.20
1367;DHT22;16877;48.810;9.282;2022-10-16T07:42:04;24.30;66.20
1367;DHT22;16877;48.810;9.282;2022-10-16T07:44:31;24.30;66.10
1367;DHT22;16877;48.810;9.282;2022-10-16T07:46:58;24.30;66.20
1367;DHT22;16877;48.810;9.282;2022-10-16T07:49:25;24.40;66.20
1367;DHT22;16877;48.810;9.282;2022-10-16T07:51:51;24.40;66.30
1367;DHT22;16877;48.810;9.282;2022-10-16T07:54:19;24.40;66.30
1367;DHT22;16877;48.810;9.282;2022-10-16T07:56:46;24.40;66.20
1367;DHT22;16877;48.810;9.282;2022-10-16T07:59:13;24.50;66.50
1367;DHT22;16877;48.810;9.282;2022-10-16T08:01:40;24.50;66.40
1367;DHT22;16877;48.810;9.282;2022-10-16T08:04:08;24.50;66.50
1367;DHT22;16877;48.810;9.282;2022-10-16T08:06:36;24.50;66.40
1367;DHT22;16877;48.810;9.282;2022-10-16T08:09:04;24.50;66.40
1367;DHT22;16877;48.810;9.282;2022-10-16T08:11:32;24.60;66.50
1367;DHT22;16877;48.810;9.282;2022-10-16T08:13:59;24.60;66.50
1367;DHT22;16877;48.810;9.282;2022-10-16T08:16:26;24.60;66.50
1367;DHT22;16877;48.810;9.282;2022-10-16T08:18:53;24.70;66.60
1367;DHT22;16877;48.810;9.282;2022-10-16T08:21:21;24.70;66.50
1367;DHT22;16877;48.810;9.282;2022-10-16T08:23:49;24.80;66.60
1367;DHT22;16877;48.810;9.282;2022-10-16T08:26:16;24.90;66.70
1367;DHT22;16877;48.810;9.282;2022-10-16T08:28:45;24.90;66.70
1367;DHT22;16877;48.810;9.282;2022-10-16T08:31:14;25.00;66.60
1367;DHT22;16877;48.810;9.282;2022-10-16T08:33:42;25.20;66.70
1367;DHT22;16877;48.810;9.282;2022-10-16T08:36:11;25.40;66.90
1367;DHT22;16877;48.810;9.282;2022-10-16T08:38:38;25.50;67.00
1367;DHT22;16877;48.810;9.282;2022-10-16T08:41:21;25.60;66.80
1367;DHT22;16877;48.810;9.282;2022-10-16T08:44:15;25.70;66.40
1367;DHT22;16877;48.810;9.282;2022-10-16T08:46:49;25.80;64.40
1367;DHT22;16877;48.810;9.282;2022-10-16T08:49:19;25.90;63.90
1367;DHT22;16877;48.810;9.282;2022-10-16T08:51:46;25.90;63.20
1367;DHT22;16877;48.810;9.282;2022-10-16T08:54:23;25.90;62.80
1367;DHT22;16877;48.810;9.282;2022-10-16T08:56:54;26.00;62.60
1367;DHT22;16877;48.810;9.282;2022-10-16T08:59:22;26.00;62.50
1367;DHT22;16877;48.810;9.282;2022-10-16T09:01:50;26.00;62.20
1367;DHT22;16877;48.810;9.282;2022-10-16T09:04:52;26.00;61.90
1367;DHT22;16877;48.810;9.282;2022-10-16T09:07:24;26.10;62.00
1367;DHT22;16877;48.810;9.282;2022-10-16T09:10:10;26.00;61.50
1367;DHT22;16877;48.810;9.282;2022-10-16T09:12:47;26.10;60.90
1367;DHT22;16877;48.810;9.282;2022-10-16T09:15:24;26.20;60.30
1367;DHT22;16877;48.810;9.282;2022-10-16T09:17:58;26.20;60.30
1367;DHT22;16877;48.810;9.282;2022-10-16T09:20:31;26.30;60.20
1367;DHT22;16877;48.810;9.282;2022-10-16T09:23:17;26.50;60.10
1367;DHT22;16877;48.810;9.282;2022-10-16T09:25:47;26.60;59.70
1367;DHT22;16877;48.810;9.282;2022-10-16T09:28:15;26.80;59.40
1367;DHT22;16877;48.810;9.282;2022-10-16T09:30:44;27.00;59.30
1367;DHT22;16877;48.810;9.282;2022-10-16T09:33:12;27.30;59.10
1367;DHT22;16877;48.810;9.282;2022-10-16T09:35:42;27.50;58.60
1367;DHT22;16877;48.810;9.282;2022-10-16T09:38:21;27.60;58.00
1367;DHT22;16877;48.810;9.282;2022-10-16T09:40:48;27.70;57.40
1367;DHT22;16877;48.810;9.282;2022-10-16T09:43:22;27.80;57.50
1367;DHT22;16877;48.810;9.282;2022-10-16T09:45:59;28.20;57.60
1367;DHT22;16877;48.810;9.282;2022-10-16T09:48:30;28.10;57.20
1367;DHT22;16877;48.810;9.282;2022-10-16T09:50:59;28.20;56.90
1367;DHT22;16877;48.810;9.282;2022-10-16T09:53:39;28.30;56.80
1367;DHT22;16877;48.810;9.282;2022-10-16T09:56:06;28.40;56.70
1367;DHT22;16877;48.810;9.282;2022-10-16T09:58:33;28.70;56.80
1367;DHT22;16877;48.810;9.282;2022-10-16T10:01:02;29.00;56.60
1367;DHT22;16877;48.810;9.282;2022-10-16T10:03:38;29.60;56.60
1367;DHT22;16877;48.810;9.282;2022-10-16T10:06:16;30.00;55.80
1367;DHT22;16877;48.810;9.282;2022-10-16T10:09:04;30.10;55.70
1367;DHT22;16877;48.810;9.282;2022-10-16T10:11:48;30.20;55.30
1367;DHT22;16877;48.810;9.282;2022-10-16T10:14:22;30.20;55.00
1367;DHT22;16877;48.810;9.282;2022-10-16T10:16:52;30.20;54.10
1367;DHT22;16877;48.810;9.282;2022-10-16T10:19:21;30.10;54.20
1367;DHT22;16877;48.810;9.282;2022-10-16T10:21:49;30.10;54.10
1367;DHT22;16877;48.810;9.282;2022-10-16T10:24:18;30.20;54.00
1367;DHT22;16877;48.810;9.282;2022-10-16T10:26:49;30.20;53.50
1367;DHT22;16877;48.810;9.282;2022-10-16T10:29:28;30.30;54.30
1367;DHT22;16877;48.810;9.282;2022-10-16T10:32:07;30.30;52.80
1367;DHT22;16877;48.810;9.282;2022-10-16T10:34:56;30.60;52.80
1367;DHT22;16877;48.810;9.282;2022-10-16T10:38:04;31.00;52.80
1367;DHT22;16877;48.810;9.282;2022-10-16T10:40:43;31.20;52.10
1367;DHT22;16877;48.810;9.282;2022-10-16T10:43:23;31.40;52.10
1367;DHT22;16877;48.810;9.282;2022-10-16T10:45:59;31.50;51.80
1367;DHT22;16877;48.810;9.282;2022-10-16T10:48:51;31.80;51.70
1367;DHT22;16877;48.810;9.282;2022-10-16T10:51:26;32.00;51.40
1367;DHT22;16877;48.810;9.282;2022-10-16T10:54:01;32.20;51.10
1367;DHT22;16877;48.810;9.282;2022-10-16T10:56:45;32.50;50.80
1367;DHT22;16877;48.810;9.282;2022-10-16T10:59:40;32.90;49.90
1367;DHT22;16877;48.810;9.282;2022-10-16T11:02:19;33.40;49.40
1367;DHT22;16877;48.810;9.282;2022-10-16T11:07:55;34.20;48.60
1367;DHT22;16877;48.810;9.282;2022-10-16T11:10:27;34.50;47.90
1367;DHT22;16877;48.810;9.282;2022-10-16T11:12:58;34.60;47.40
1367;DHT22;16877;48.810;9.282;2022-10-16T11:15:29;34.80;47.40
1367;DHT22;16877;48.810;9.282;2022-10-16T11:18:03;35.00;47.10
1367;DHT22;16877;48.810;9.282;2022-10-16T11:20:37;35.30;46.90
1367;DHT22;16877;48.810;9.282;2022-10-16T11:23:11;35.50;46.30
1367;DHT22;16877;48.810;9.282;2022-10-16T11:25:42;35.70;46.00
1367;DHT22;16877;48.810;9.282;2022-10-16T11:28:13;35.50;45.30
1367;DHT22;16877;48.810;9.282;2022-10-16T11:30:44;35.80;45.50
1367;DHT22;16877;48.810;9.282;2022-10-16T11:33:25;36.10;44.60
1367;DHT22;16877;48.810;9.282;2022-10-16T11:35:59;36.30;43.90
1367;DHT22;16877;48.810;9.282;2022-10-16T11:38:29;36.60;43.90
1367;DHT22;16877;48.810;9.282;2022-10-16T11:41:01;36.80;44.10
1367;DHT22;16877;48.810;9.282;2022-10-16T11:43:33;37.10;43.90
1367;DHT22;16877;48.810;9.282;2022-10-16T11:46:08;37.30;43.00
1367;DHT22;16877;48.810;9.282;2022-10-16T11:48:38;37.40;42.40
1367;DHT22;16877;48.810;9.282;2022-10-16T11:51:16;37.50;42.50
1367;DHT22;16877;48.810;9.282;2022-10-16T11:53:51;37.70;42.00
1367;DHT22;16877;48.810;9.282;2022-10-16T11:56:21;37.70;41.50
1367;DHT22;16877;48.810;9.282;2022-10-16T11:58:55;37.90;41.50
1367;DHT22;16877;48.810;9.282;2022-10-16T12:01:28;38.00;41.40
1367;DHT22;16877;48.810;9.282;2022-10-16T12:04:06;38.10;41.10
1367;DHT22;16877;48.810;9.282;2022-10-16T12:06:42;37.90;40.90
1367;DHT22;16877;48.810;9.282;2022-10-16T12:09:15;37.90;40.90
1367;DHT22;16877;48.810;9.282;2022-10-16T12:11:43;37.90;40.50
1367;DHT22;16877;48.810;9.282;2022-10-16T12:14:34;37.90;40.40
1367;DHT22;16877;48.810;9.282;2022-10-16T12:17:03;37.90;40.60
1367;DHT22;16877;48.810;9.282;2022-10-16T12:19:32;38.00;40.30
1367;DHT22;16877;48.810;9.282;2022-10-16T12:22:02;38.00;40.40
1367;DHT22;16877;48.810;9.282;2022-10-16T12:24:33;38.10;40.20
1367;DHT22;16877;48.810;9.282;2022-10-16T12:27:01;37.90;39.90
1367;DHT22;16877;48.810;9.282;2022-10-16T12:29:33;37.80;40.60
1367;DHT22;16877;48.810;9.282;2022-10-16T12:32:01;37.50;40.70
1367;DHT22;16877;48.810;9.282;2022-10-16T12:34:31;37.30;40.90
1367;DHT22;16877;48.810;9.282;2022-10-16T12:37:11;37.10;40.80
1367;DHT22;16877;48.810;9.282;2022-10-16T12:39:39;36.90;41.20
1367;DHT22;16877;48.810;9.282;2022-10-16T12:42:21;36.60;41.50
1367;DHT22;16877;48.810;9.282;2022-10-16T12:44:48;36.10;41.90
1367;DHT22;16877;48.810;9.282;2022-10-16T12:47:21;36.00;42.40
1367;DHT22;16877;48.810;9.282;2022-10-16T12:49:50;35.90;42.40
1367;DHT22;16877;48.810;9.282;2022-10-16T12:52:27;35.80;42.60
1367;DHT22;16877;48.810;9.282;2022-10-16T12:54:56;35.70;42.50
1367;DHT22;16877;48.810;9.282;2022-10-16T12:57:38;35.50;42.50
1367;DHT22;16877;48.810;9.282;2022-10-16T13:00:17;35.30;42.70
1367;DHT22;16877;48.810;9.282;2022-10-16T13:05:49;34.60;43.70
1367;DHT22;16877;48.810;9.282;2022-10-16T13:08:33;34.40;44.10
1367;DHT22;16877;48.810;9.282;2022-10-16T13:11:05;34.10;44.10
1367;DHT22;16877;48.810;9.282;2022-10-16T13:16:32;33.60;45.00
1367;DHT22;16877;48.810;9.282;2022-10-16T13:19:10;33.50;45.20
1367;DHT22;16877;48.810;9.282;2022-10-16T13:21:44;33.50;45.40
1367;DHT22;16877;48.810;9.282;2022-10-16T13:24:23;33.80;45.60
1367;DHT22;16877;48.810;9.282;2022-10-16T13:26:56;34.10;45.90
1367;DHT22;16877;48.810;9.282;2022-10-16T13:29:29;34.10;45.90
1367;DHT22;16877;48.810;9.282;2022-10-16T13:31:57;33.90;45.20
1367;DHT22;16877;48.810;9.282;2022-10-16T13:34:25;33.80;45.30
1367;DHT22;16877;48.810;9.282;2022-10-16T13:36:53;33.70;45.60
1367;DHT22;16877;48.810;9.282;2022-10-16T13:39:23;33.70;45.60
1367;DHT22;16877;48.810;9.282;2022-10-16T13:42:05;33.70;45.60
1367;DHT22;16877;48.810;9.282;2022-10-16T13:44:37;33.60;45.40
1367;DHT22;16877;48.810;9.282;2022-10-16T13:47:10;33.50;45.80
1367;DHT22;16877;48.810;9.282;2022-10-16T13:49:41;33.50;46.20
1367;DHT22;16877;48.810;9.282;2022-10-16T13:52:17;33.50;46.90
1367;DHT22;16877;48.810;9.282;2022-10-16T13:54:46;33.60;47.00
1367;DHT22;16877;48.810;9.282;2022-10-16T13:57:14;33.70;46.70
1367;DHT22;16877;48.810;9.282;2022-10-16T13:59:40;33.80;46.60
1367;DHT22;16877;48.810;9.282;2022-10-16T14:02:16;34.00;46.40
1367;DHT22;16877;48.810;9.282;2022-10-16T14:04:45;34.20;46.00
1367;DHT22;16877;48.810;9.282;2022-10-16T14:07:15;34.10;45.80
1367;DHT22;16877;48.810;9.282;2022-10-16T14:09:49;34.00;45.90
1367;DHT22;16877;48.810;9.282;2022-10-16T14:12:17;33.80;45.90
1367;DHT22;16877;48.810;9.282;2022-10-16T14:14:45;33.60;46.20
1367;DHT22;16877;48.810;9.282;2022-10-16T14:17:18;33.30;46.20
1367;DHT22;16877;48.810;9.282;2022-10-16T14:19:47;33.00;46.40
1367;DHT22;16877;48.810;9.282;2022-10-16T14:22:33;32.90;46.90
1367;DHT22;16877;48.810;9.282;2022-10-16T14:25:01;32.60;46.80
1367;DHT22;16877;48.810;9.282;2022-10-16T14:27:30;32.50;47.20
1367;DHT22;16877;48.810;9.282;2022-10-16T14:30:16;32.40;47.60
1367;DHT22;16877;48.810;9.282;2022-10-16T14:32:53;32.20;47.80
1367;DHT22;16877;48.810;9.282;2022-10-16T14:35:26;32.20;48.20
1367;DHT22;16877;48.810;9.282;2022-10-16T14:37:53;32.00;48.40
1367;DHT22;16877;48.810;9.282;2022-10-16T14:40:24;31.90;48.60
1367;DHT22;16877;48.810;9.282;2022-10-16T14:42:51;31.80;49.00
1367;DHT22;16877;48.810;9.282;2022-10-16T14:45:19;31.60;49.20
1367;DHT22;16877;48.810;9.282;2022-10-16T14:47:49;31.50;49.40
1367;DHT22;16877;48.810;9.282;2022-10-16T14:50:17;31.50;49.70
1367;DHT22;16877;48.810;9.282;2022-10-16T14:52:43;31.40;49.80
1367;DHT22;16877;48.810;9.282;2022-10-16T14:55:10;31.30;49.60
1367;DHT22;16877;48.810;9.282;2022-10-16T14:57:39;31.40;49.80
1367;DHT22;16877;48.810;9.282;2022-10-16T15:00:13;31.50;49.90
1367;DHT22;16877;48.810;9.282;2022-10-16T15:02:42;31.50;50.30
1367;DHT22;16877;48.810;9.282;2022-10-16T15:05:13;31.60;50.70
1367;DHT22;16877;48.810;9.282;2022-10-16T15:07:41;31.60;50.90
1367;DHT22;16877;48.810;9.282;2022-10-16T15:10:08;31.50;50.90
1367;DHT22;16877;48.810;9.282;2022-10-16T15:12:35;31.60;51.20
1367;DHT22;16877;48.810;9.282;2022-10-16T15:15:27;31.60;51.10
1367;DHT22;16877;48.810;9.282;2022-10-16T15:17:56;31.60;51.00
1367;DHT22;16877;48.810;9.282;2022-10-16T15:20:26;31.70;51.20
1367;DHT22;16877;48.810;9.282;2022-10-16T15:22:53;31.70;51.30
1367;DHT22;16877;48.810;9.282;2022-10-16T15:25:31;31.70;51.40
1367;DHT22;16877;48.810;9.282;2022-10-16T15:27:58;31.90;51.60
1367;DHT22;16877;48.810;9.282;2022-10-16T15:30:27;32.00;51.40
1367;DHT22;16877;48.810;9.282;2022-10-16T15:32:53;32.00;51.60
1367;DHT22;16877;48.810;9.282;2022-10-16T15:35:20;32.00;51.50
1367;DHT22;16877;48.810;9.282;2022-10-16T15:37:48;32.00;51.30
1367;DHT22;16877;48.810;9.282;2022-10-16T15:40:15;31.90;51.90
1367;DHT22;16877;48.810;9.282;2022-10-16T15:42:42;31.70;51.40
1367;DHT22;16877;48.810;9.282;2022-10-16T15:45:09;31.50;51.70
1367;DHT22;16877;48.810;9.282;2022-10-16T15:47:38;31.50;52.40
1367;DHT22;16877;48.810;9.282;2022-10-16T15:50:05;31.40;51.60
1367;DHT22;16877;48.810;9.282;2022-10-16T15:52:33;31.30;51.60
1367;DHT22;16877;48.810;9.282;2022-10-16T15:55:00;31.20;51.40
1367;DHT22;16877;48.810;9.282;2022-10-16T15:57:28;31.00;51.60
1367;DHT22;16877;48.810;9.282;2022-10-16T15:59:55;30.90;51.90
1367;DHT22;16877;48.810;9.282;2022-10-16T16:02:21;30.70;52.20
1367;DHT22;16877;48.810;9.282;2022-10-16T16:04:49;30.50;52.10
1367;DHT22;16877;48.810;9.282;2022-10-16T16:07:17;30.40;52.30
1367;DHT22;16877;48.810;9.282;2022-10-16T16:09:44;30.30;52.40
1367;DHT22;16877;48.810;9.282;2022-10-16T16:12:10;30.10;52.60
1367;DHT22;16877;48.810;9.282;2022-10-16T16:14:37;30.00;52.80
1367;DHT22;16877;48.810;9.282;2022-10-16T16:17:04;29.90;52.80